Time;durP1;ratioP1;P1;durP2;ratioP2;P2;SDS_P1;SDS_P2;PMS_P1;PMS_P2;Temp;Humidity;BMP_temperature;BMP_pressure;BME280_temperature;BME280_humidity;BME280_pressure;Samples;Min_cycle;Max_cycle;Signal;HPM_P1;HPM_P2
2022/06/20 00:01:44;;;;;;;0.50;0.50;;;20.10;93.20;;;;;;5116645;28;20439;-69
2022/06/20 00:04:16;;;;;;;0.60;0.60;;;20.00;92.90;;;;;;5116334;28;20444;-69
2022/06/20 00:06:42;;;;;;;0.50;0.50;;;20.00;93.00;;;;;;5116385;28;20254;-69
2022/06/20 00:09:10;;;;;;;0.40;0.40;;;20.00;93.10;;;;;;5116501;28;20852;-69
2022/06/20 00:11:40;;;;;;;0.30;0.30;;;20.00;93.60;;;;;;5116403;28;20791;-69
2022/06/20 00:14:10;;;;;;;0.40;0.40;;;20.10;93.40;;;;;;5116193;28;21003;-69
2022/06/20 00:16:35;;;;;;;0.40;0.40;;;20.10;93.30;;;;;;5116307;27;20499;-69
2022/06/20 00:19:01;;;;;;;1.47;1.47;;;20.10;93.60;;;;;;5116109;28;20579;-69
2022/06/20 00:21:28;;;;;;;0.60;0.60;;;20.00;93.70;;;;;;5116032;28;20219;-70
2022/06/20 00:23:54;;;;;;;0.40;0.40;;;20.10;93.30;;;;;;5115788;28;20499;-69
2022/06/20 00:26:20;;;;;;;0.30;0.30;;;20.10;93.60;;;;;;5114729;28;20495;-69
2022/06/20 00:28:46;;;;;;;1.27;1.00;;;20.10;93.00;;;;;;5116176;28;20575;-69
2022/06/20 00:31:12;;;;;;;0.30;0.30;;;20.10;93.40;;;;;;5116040;28;20171;-69
2022/06/20 00:33:38;;;;;;;0.30;0.30;;;20.10;92.50;;;;;;5115562;28;20168;-69
2022/06/20 00:36:04;;;;;;;0.30;0.30;;;20.10;92.90;;;;;;5115841;28;20406;-70
2022/06/20 00:38:31;;;;;;;0.97;0.73;;;20.10;93.20;;;;;;5115741;28;20671;-69
2022/06/20 00:41:05;;;;;;;0.30;0.30;;;20.00;93.70;;;;;;5115596;28;20411;-69
2022/06/20 00:43:33;;;;;;;0.30;0.30;;;20.00;94.30;;;;;;5115577;28;20394;-69
2022/06/20 00:46:06;;;;;;;0.30;0.30;;;19.90;94.70;;;;;;5115344;28;20428;-70
2022/06/20 00:48:46;;;;;;;0.30;0.30;;;19.80;94.50;;;;;;5115639;28;20542;-69
2022/06/20 00:51:23;;;;;;;0.40;0.40;;;19.80;94.70;;;;;;5115742;28;20404;-70
2022/06/20 00:53:58;;;;;;;0.40;0.40;;;19.80;94.90;;;;;;5115404;28;20857;-69
2022/06/20 00:56:39;;;;;;;0.30;0.30;;;19.70;94.70;;;;;;5115425;28;20469;-69
2022/06/20 00:59:11;;;;;;;0.40;0.40;;;19.70;95.00;;;;;;5115545;28;20457;-69
2022/06/20 01:01:41;;;;;;;0.73;0.73;;;19.60;95.50;;;;;;5115767;28;20432;-70
2022/06/20 01:04:46;;;;;;;0.30;0.30;;;19.60;95.70;;;;;;5115161;28;21002;-70
2022/06/20 01:07:28;;;;;;;0.60;0.60;;;19.60;95.80;;;;;;5113209;28;20765;-69
2022/06/20 01:09:57;;;;;;;0.47;0.47;;;19.50;96.00;;;;;;5115320;27;20398;-68
2022/06/20 01:12:25;;;;;;;0.30;0.30;;;19.50;95.80;;;;;;5115110;28;20417;-70
2022/06/20 01:14:51;;;;;;;0.40;0.40;;;19.50;95.90;;;;;;5115037;28;20462;-70
2022/06/20 01:17:32;;;;;;;1.03;1.03;;;19.60;95.70;;;;;;5114993;28;20411;-68
2022/06/20 01:20:17;;;;;;;0.60;0.60;;;19.60;95.80;;;;;;5115209;28;20200;-69
2022/06/20 01:23:00;;;;;;;0.30;0.30;;;19.60;95.40;;;;;;5114724;28;20425;-70
2022/06/20 01:26:02;;;;;;;0.30;0.30;;;19.60;95.40;;;;;;5114842;28;20433;-69
2022/06/20 01:28:33;;;;;;;0.40;0.40;;;19.50;95.20;;;;;;5115064;28;20882;-69
2022/06/20 01:30:59;;;;;;;0.30;0.30;;;19.50;95.50;;;;;;5115037;28;20415;-69
2022/06/20 01:33:26;;;;;;;0.43;0.40;;;19.50;95.80;;;;;;5114678;28;20408;-69
2022/06/20 01:38:39;;;;;;;0.30;0.30;;;19.40;95.70;;;;;;5115036;28;20578;-69
2022/06/20 01:43:53;;;;;;;0.50;0.50;;;19.50;95.70;;;;;;5114851;28;20397;-70
2022/06/20 01:46:25;;;;;;;0.43;0.43;;;19.50;95.50;;;;;;5114570;28;20412;-69
2022/06/20 01:48:55;;;;;;;0.30;0.30;;;19.50;95.50;;;;;;5114963;28;20945;-69
2022/06/20 01:51:24;;;;;;;0.40;0.40;;;19.50;95.80;;;;;;5114517;28;20410;-69
2022/06/20 01:53:52;;;;;;;0.53;0.53;;;19.60;95.90;;;;;;5114375;28;20482;-70
2022/06/20 01:56:19;;;;;;;0.30;0.30;;;19.60;96.00;;;;;;5114457;28;20408;-70
2022/06/20 01:58:51;;;;;;;1.43;1.43;;;19.60;96.10;;;;;;5114245;28;20937;-69
2022/06/20 02:01:17;;;;;;;0.47;0.47;;;19.50;95.90;;;;;;5114361;28;20478;-70
2022/06/20 02:03:45;;;;;;;0.50;0.50;;;19.50;96.50;;;;;;5114109;28;20414;-69
2022/06/20 02:06:15;;;;;;;0.40;0.40;;;19.50;96.80;;;;;;5114402;28;20409;-70
2022/06/20 02:08:43;;;;;;;0.30;0.30;;;19.50;96.30;;;;;;5113868;28;20410;-69
2022/06/20 02:11:42;;;;;;;2.83;0.60;;;19.50;96.30;;;;;;5114334;28;20397;-70
2022/06/20 02:14:16;;;;;;;0.30;0.30;;;19.50;96.20;;;;;;5090827;28;20447;-70
2022/06/20 02:16:49;;;;;;;0.43;0.43;;;19.50;96.30;;;;;;5114291;28;20386;-70
2022/06/20 02:19:19;;;;;;;0.30;0.30;;;19.50;96.50;;;;;;5114206;28;20537;-69
2022/06/20 02:21:46;;;;;;;0.40;0.40;;;19.60;96.60;;;;;;5113864;28;20405;-68
2022/06/20 02:24:18;;;;;;;1.00;1.00;;;19.50;96.80;;;;;;5113809;28;20436;-70
2022/06/20 02:26:48;;;;;;;0.40;0.40;;;19.50;97.00;;;;;;5114260;28;20409;-69
2022/06/20 02:29:26;;;;;;;0.30;0.30;;;19.60;96.70;;;;;;5114071;28;20762;-69
2022/06/20 02:31:59;;;;;;;0.30;0.30;;;19.60;96.90;;;;;;5114229;28;20394;-69
2022/06/20 02:34:28;;;;;;;0.30;0.30;;;19.70;96.40;;;;;;5113493;28;20511;-69
2022/06/20 02:36:55;;;;;;;0.30;0.30;;;19.70;96.60;;;;;;5113882;28;20763;-69
2022/06/20 02:39:21;;;;;;;0.30;0.30;;;19.70;96.30;;;;;;5114031;28;20453;-69
2022/06/20 02:41:57;;;;;;;0.30;0.30;;;19.70;96.40;;;;;;5113937;28;20401;-69
2022/06/20 02:44:24;;;;;;;0.60;0.60;;;19.90;96.20;;;;;;5113817;28;20431;-69
2022/06/20 02:46:51;;;;;;;0.40;0.40;;;20.00;96.50;;;;;;5113796;28;20460;-70
2022/06/20 02:49:21;;;;;;;0.60;0.60;;;20.10;94.90;;;;;;5114230;28;20497;-69
2022/06/20 02:51:51;;;;;;;0.40;0.40;;;20.30;94.20;;;;;;5113803;28;20455;-69
2022/06/20 02:54:21;;;;;;;0.37;0.37;;;20.40;98.30;;;;;;5113536;28;20428;-69
2022/06/20 02:56:51;;;;;;;0.67;0.67;;;20.20;99.50;;;;;;5113840;28;20444;-70
2022/06/20 02:59:24;;;;;;;0.30;0.30;;;20.10;99.90;;;;;;5113797;28;20521;-69
2022/06/20 03:02:04;;;;;;;1.07;1.07;;;19.90;99.90;;;;;;5113716;28;20404;-70
2022/06/20 03:04:34;;;;;;;0.30;0.30;;;19.60;99.90;;;;;;5113745;28;20792;-69
2022/06/20 03:07:06;;;;;;;0.80;0.80;;;19.40;99.90;;;;;;5112359;28;20771;-70
2022/06/20 03:09:35;;;;;;;0.50;0.50;;;19.20;99.90;;;;;;5113841;28;20412;-70
2022/06/20 03:12:04;;;;;;;0.30;0.30;;;19.10;99.90;;;;;;5113849;28;20413;-70
2022/06/20 03:14:36;;;;;;;0.50;0.50;;;19.10;99.90;;;;;;5113467;28;20429;-69
2022/06/20 03:17:04;;;;;;;0.30;0.30;;;19.10;99.90;;;;;;5113736;28;20416;-69
2022/06/20 03:19:33;;;;;;;0.60;0.60;;;19.10;99.90;;;;;;5113814;28;20532;-70
2022/06/20 03:22:06;;;;;;;0.30;0.30;;;19.00;99.90;;;;;;5117451;28;20762;-69
2022/06/20 03:24:32;;;;;;;0.40;0.40;;;19.00;99.90;;;;;;5117650;28;20448;-70
2022/06/20 03:27:01;;;;;;;0.80;0.80;;;19.00;99.90;;;;;;5117275;28;20805;-68
2022/06/20 03:29:27;;;;;;;0.30;0.30;;;19.00;99.90;;;;;;5117279;28;20406;-69
2022/06/20 03:31:53;;;;;;;0.40;0.40;;;18.80;99.90;;;;;;5117335;28;20774;-68
2022/06/20 03:34:21;;;;;;;0.50;0.50;;;18.80;99.90;;;;;;5117043;28;20195;-69
2022/06/20 03:36:49;;;;;;;1.03;0.77;;;18.80;99.90;;;;;;5117062;28;20405;-70
2022/06/20 03:39:17;;;;;;;0.30;0.30;;;18.70;99.90;;;;;;5116996;28;20777;-70
2022/06/20 03:41:43;;;;;;;0.43;0.43;;;18.60;99.90;;;;;;5117055;28;20402;-69
2022/06/20 03:44:28;;;;;;;0.30;0.30;;;18.50;99.90;;;;;;5116861;28;20838;-68
2022/06/20 03:47:04;;;;;;;0.30;0.30;;;18.50;99.90;;;;;;5117060;28;20430;-69
2022/06/20 03:50:02;;;;;;;0.40;0.40;;;18.50;99.90;;;;;;5117178;28;20416;-69
2022/06/20 03:52:38;;;;;;;0.30;0.30;;;18.50;99.90;;;;;;5115375;28;20424;-68
2022/06/20 03:55:06;;;;;;;1.27;0.83;;;18.40;99.90;;;;;;5116893;28;20456;-70
2022/06/20 03:57:38;;;;;;;1.90;0.90;;;18.50;99.90;;;;;;5116705;28;20467;-68
2022/06/20 04:00:15;;;;;;;1.47;1.37;;;18.40;99.90;;;;;;5116620;28;20926;-70
2022/06/20 04:02:51;;;;;;;0.30;0.30;;;18.40;99.90;;;;;;5116401;28;20466;-70
2022/06/20 04:05:34;;;;;;;0.30;0.30;;;18.50;99.90;;;;;;5116484;28;20767;-69
2022/06/20 04:08:05;;;;;;;0.40;0.40;;;18.40;99.90;;;;;;5116922;28;20398;-68
2022/06/20 04:10:59;;;;;;;0.40;0.40;;;18.40;99.90;;;;;;5116722;28;20747;-70
2022/06/20 04:13:46;;;;;;;0.40;0.40;;;18.30;99.90;;;;;;5116489;28;20405;-69
2022/06/20 04:16:49;;;;;;;0.50;0.50;;;18.30;99.90;;;;;;5116632;28;20398;-70
2022/06/20 04:19:39;;;;;;;0.30;0.30;;;18.20;99.90;;;;;;5116313;28;20449;-69
2022/06/20 04:22:13;;;;;;;0.40;0.40;;;18.20;99.90;;;;;;5115740;28;20516;-69
2022/06/20 04:24:38;;;;;;;0.37;0.37;;;18.20;99.90;;;;;;5116394;28;20783;-68
2022/06/20 04:27:04;;;;;;;0.80;0.80;;;18.20;99.90;;;;;;5116206;28;20485;-69
2022/06/20 04:29:49;;;;;;;0.30;0.30;;;18.20;99.90;;;;;;5116111;28;20588;-69
2022/06/20 04:32:35;;;;;;;0.30;0.30;;;18.30;99.90;;;;;;5115752;28;20207;-69
2022/06/20 04:35:17;;;;;;;2.30;2.20;;;18.20;99.90;;;;;;5115848;28;20426;-69
2022/06/20 04:38:05;;;;;;;0.30;0.30;;;18.10;99.90;;;;;;5116381;28;20455;-69
2022/06/20 04:40:47;;;;;;;0.30;0.30;;;18.20;99.90;;;;;;5109176;28;20433;-70
2022/06/20 04:43:40;;;;;;;0.30;0.30;;;18.10;99.90;;;;;;5115707;28;20400;-68
2022/06/20 04:46:17;;;;;;;0.40;0.40;;;18.10;99.90;;;;;;5116023;27;20422;-69
2022/06/20 04:48:46;;;;;;;0.30;0.30;;;18.00;99.90;;;;;;5115963;28;20390;-69
2022/06/20 04:51:17;;;;;;;0.60;0.60;;;18.10;99.90;;;;;;5115777;28;20531;-69
2022/06/20 04:53:45;;;;;;;0.30;0.30;;;18.10;99.90;;;;;;5115489;27;21020;-69
2022/06/20 04:56:14;;;;;;;0.80;0.80;;;18.10;99.90;;;;;;5115562;28;20426;-69
2022/06/20 04:58:52;;;;;;;0.50;0.47;;;18.10;99.90;;;;;;5115422;28;20518;-69
2022/06/20 05:01:20;;;;;;;0.93;0.93;;;18.00;99.90;;;;;;5115406;28;20394;-68
2022/06/20 05:03:49;;;;;;;3.47;1.03;;;18.00;99.90;;;;;;5115472;28;20398;-69
2022/06/20 05:06:21;;;;;;;0.30;0.30;;;18.00;99.90;;;;;;5115244;28;20398;-70
2022/06/20 05:08:52;;;;;;;0.87;0.83;;;18.10;99.90;;;;;;5115561;28;20454;-69
2022/06/20 05:11:27;;;;;;;0.50;0.50;;;18.10;99.90;;;;;;5115254;28;20410;-69
2022/06/20 05:14:13;;;;;;;0.53;0.53;;;18.10;99.90;;;;;;5115069;28;20544;-69
2022/06/20 05:16:44;;;;;;;0.70;0.70;;;18.20;99.90;;;;;;5115279;28;20390;-68
2022/06/20 05:19:36;;;;;;;0.90;0.90;;;18.30;99.90;;;;;;5115276;27;20437;-68
2022/06/20 05:22:08;;;;;;;0.30;0.30;;;18.40;99.90;;;;;;5114839;28;20404;-69
2022/06/20 05:24:39;;;;;;;0.40;0.40;;;18.60;99.90;;;;;;5115100;28;20859;-69
2022/06/20 05:27:14;;;;;;;0.40;0.40;;;18.80;99.90;;;;;;5115025;28;20398;-69
2022/06/20 05:29:43;;;;;;;0.47;0.47;;;18.90;99.90;;;;;;5115196;28;20426;-69
2022/06/20 05:32:14;;;;;;;0.40;0.40;;;19.20;99.90;;;;;;5114937;28;20406;-69
2022/06/20 05:34:58;;;;;;;0.53;0.53;;;19.50;99.90;;;;;;5114914;28;20418;-70
2022/06/20 05:37:40;;;;;;;0.40;0.40;;;20.10;99.90;;;;;;5114873;28;20770;-69
2022/06/20 05:40:08;;;;;;;0.30;0.30;;;20.50;99.90;;;;;;5114921;28;20451;-69
2022/06/20 05:42:34;;;;;;;0.30;0.30;;;21.20;99.90;;;;;;5113831;28;20442;-70
2022/06/20 05:45:01;;;;;;;0.30;0.30;;;22.10;99.90;;;;;;5114566;28;20439;-69
2022/06/20 05:47:34;;;;;;;1.67;1.57;;;22.80;99.90;;;;;;5114787;28;20401;-70
2022/06/20 05:50:18;;;;;;;0.30;0.30;;;23.20;99.90;;;;;;5114787;28;20412;-70
2022/06/20 05:52:46;;;;;;;0.67;0.50;;;23.50;99.90;;;;;;5114586;28;20409;-70
2022/06/20 05:55:21;;;;;;;0.90;0.90;;;23.70;99.90;;;;;;5114381;28;20426;-71
2022/06/20 05:57:50;;;;;;;0.40;0.40;;;23.60;99.80;;;;;;5114525;28;20420;-69
2022/06/20 06:00:16;;;;;;;0.60;0.60;;;23.50;99.90;;;;;;5114428;28;20453;-69
2022/06/20 06:02:52;;;;;;;0.30;0.30;;;23.70;99.90;;;;;;5114007;28;20410;-69
2022/06/20 06:05:38;;;;;;;0.30;0.30;;;24.10;99.60;;;;;;5114354;28;20275;-70
2022/06/20 06:08:28;;;;;;;0.50;0.50;;;24.60;98.70;;;;;;5114406;28;20760;-69
2022/06/20 06:11:03;;;;;;;0.30;0.30;;;25.00;97.20;;;;;;5114288;28;20377;-70
2022/06/20 06:13:40;;;;;;;1.07;1.07;;;25.00;97.00;;;;;;5114012;28;20422;-71
2022/06/20 06:19:21;;;;;;;0.40;0.40;;;25.60;94.70;;;;;;5114236;28;20483;-70
2022/06/20 06:21:47;;;;;;;0.30;0.30;;;25.80;95.30;;;;;;5113910;28;20375;-70
2022/06/20 06:24:17;;;;;;;0.50;0.50;;;25.30;95.70;;;;;;5113885;28;20437;-69
2022/06/20 06:26:47;;;;;;;0.40;0.40;;;24.70;93.30;;;;;;5114008;28;20372;-70
2022/06/20 06:29:20;;;;;;;0.40;0.40;;;24.70;95.10;;;;;;5114157;28;20393;-69
2022/06/20 06:31:49;;;;;;;0.50;0.50;;;25.10;96.80;;;;;;5114164;28;20928;-69
2022/06/20 06:34:43;;;;;;;1.13;1.13;;;25.70;95.20;;;;;;5113640;28;20422;-69
2022/06/20 06:37:24;;;;;;;0.40;0.40;;;26.60;91.20;;;;;;5114003;28;20400;-71
2022/06/20 06:39:57;;;;;;;0.30;0.30;;;28.00;92.40;;;;;;5113974;28;20808;-70
2022/06/20 06:42:22;;;;;;;0.40;0.40;;;28.90;80.80;;;;;;5113854;28;20409;-70
2022/06/20 06:44:50;;;;;;;0.40;0.40;;;29.20;83.00;;;;;;5113713;28;20448;-70
2022/06/20 06:47:19;;;;;;;0.60;0.60;;;30.00;82.70;;;;;;5113901;28;20596;-71
2022/06/20 06:49:49;;;;;;;0.50;0.50;;;31.00;73.90;;;;;;5113862;28;20394;-70
2022/06/20 06:52:17;;;;;;;0.60;0.40;;;32.00;65.20;;;;;;5113775;28;20451;-71
2022/06/20 06:54:43;;;;;;;0.50;0.50;;;32.50;59.00;;;;;;5115893;28;20425;-70
2022/06/20 06:57:35;;;;;;;0.40;0.40;;;33.20;59.80;;;;;;5117870;28;20910;-70
2022/06/20 07:00:04;;;;;;;0.40;0.40;;;34.20;58.50;;;;;;5118023;28;20737;-70
2022/06/20 07:02:35;;;;;;;0.83;0.83;;;34.60;58.70;;;;;;5117877;28;20408;-71
2022/06/20 07:05:09;;;;;;;0.30;0.30;;;35.00;57.20;;;;;;5117784;28;20414;-71
2022/06/20 07:07:57;;;;;;;0.40;0.40;;;35.70;55.90;;;;;;5117727;28;20424;-69
2022/06/20 07:10:27;;;;;;;0.70;0.70;;;35.90;46.90;;;;;;5118009;28;20485;-70
2022/06/20 07:12:58;;;;;;;0.90;0.90;;;35.70;50.60;;;;;;5117500;28;20398;-70
2022/06/20 07:15:25;;;;;;;0.40;0.40;;;35.60;48.90;;;;;;5117580;28;20818;-70
2022/06/20 07:17:57;;;;;;;0.63;0.63;;;35.30;47.90;;;;;;5117706;27;20410;-71
2022/06/20 07:20:30;;;;;;;0.60;0.50;;;35.10;47.20;;;;;;5117616;28;20449;-70
2022/06/20 07:23:00;;;;;;;0.40;0.40;;;35.50;50.50;;;;;;5117268;28;20858;-70
2022/06/20 07:25:40;;;;;;;0.60;0.60;;;35.70;50.40;;;;;;5117387;28;20429;-70
2022/06/20 07:28:20;;;;;;;0.43;0.40;;;35.80;47.20;;;;;;5117180;28;20397;-71
2022/06/20 07:30:55;;;;;;;1.43;1.43;;;35.90;47.90;;;;;;5117379;28;20498;-71
2022/06/20 07:33:36;;;;;;;0.40;0.40;;;35.30;48.40;;;;;;5117247;28;20492;-70
2022/06/20 07:36:07;;;;;;;0.63;0.63;;;35.50;49.30;;;;;;5117112;28;20421;-70
2022/06/20 07:38:40;;;;;;;0.63;0.63;;;35.90;45.70;;;;;;5117173;27;20454;-70
2022/06/20 07:41:21;;;;;;;0.40;0.40;;;36.00;47.10;;;;;;5117545;28;20437;-70
2022/06/20 07:43:50;;;;;;;0.40;0.40;;;36.40;48.70;;;;;;5116935;28;20402;-71
2022/06/20 07:46:25;;;;;;;0.83;0.83;;;37.40;44.10;;;;;;5117010;28;20402;-71
2022/06/20 07:48:54;;;;;;;0.50;0.40;;;37.40;44.10;;;;;;5117105;28;20398;-71
2022/06/20 07:51:27;;;;;;;0.40;0.40;;;37.60;44.80;;;;;;5117041;28;20413;-71
2022/06/20 07:54:16;;;;;;;0.60;0.60;;;37.80;45.50;;;;;;5116638;28;20410;-71
2022/06/20 07:56:54;;;;;;;0.50;0.40;;;38.00;43.90;;;;;;5116768;28;20417;-70
2022/06/20 07:59:55;;;;;;;1.37;1.27;;;37.80;44.10;;;;;;5116617;28;20454;-71
2022/06/20 08:02:40;;;;;;;0.40;0.40;;;37.40;41.70;;;;;;5116509;28;20486;-71
2022/06/20 08:05:10;;;;;;;0.30;0.30;;;37.40;40.80;;;;;;5116188;28;20429;-70
2022/06/20 08:07:58;;;;;;;0.40;0.40;;;37.70;42.50;;;;;;5116204;28;20765;-71
2022/06/20 08:10:39;;;;;;;0.60;0.60;;;38.20;39.90;;;;;;5116542;28;20459;-71
2022/06/20 08:13:15;;;;;;;0.40;0.40;;;38.90;39.00;;;;;;5116537;28;20409;-71
2022/06/20 08:15:53;;;;;;;0.40;0.40;;;38.00;38.80;;;;;;5116385;28;20430;-71
2022/06/20 08:18:20;;;;;;;0.50;0.50;;;37.20;40.10;;;;;;5116284;28;20394;-71
2022/06/20 08:20:53;;;;;;;2.00;1.03;;;35.90;40.80;;;;;;5116336;28;20806;-71
2022/06/20 08:23:42;;;;;;;0.60;0.60;;;35.40;43.20;;;;;;5116071;28;20422;-71
2022/06/20 08:26:12;;;;;;;0.40;0.40;;;35.90;42.50;;;;;;5115730;28;20407;-70
2022/06/20 08:28:53;;;;;;;1.57;1.47;;;36.00;42.80;;;;;;5116317;28;20394;-70
2022/06/20 08:31:30;;;;;;;1.20;1.20;;;36.70;43.50;;;;;;5116432;28;20386;-70
2022/06/20 08:33:59;;;;;;;0.37;0.37;;;37.50;40.50;;;;;;5115913;28;20425;-70
2022/06/20 08:36:47;;;;;;;0.50;0.50;;;38.00;41.90;;;;;;5115983;28;20431;-71
2022/06/20 08:39:45;;;;;;;0.83;0.83;;;38.70;41.30;;;;;;5116116;28;20449;-70
2022/06/20 08:42:35;;;;;;;0.30;0.30;;;38.30;38.60;;;;;;5115270;27;20410;-70
2022/06/20 08:45:01;;;;;;;0.40;0.40;;;37.50;40.20;;;;;;5115879;28;20898;-70
2022/06/20 08:48:03;;;;;;;0.40;0.30;;;37.40;40.70;;;;;;5115716;28;20397;-71
2022/06/20 08:51:02;;;;;;;1.10;0.87;;;37.80;38.20;;;;;;5115894;28;20527;-71
2022/06/20 08:53:53;;;;;;;0.40;0.40;;;37.40;39.40;;;;;;5115479;28;20386;-70
2022/06/20 08:56:54;;;;;;;0.40;0.40;;;36.80;39.80;;;;;;5115958;28;20394;-70
2022/06/20 08:59:47;;;;;;;0.40;0.40;;;37.10;40.40;;;;;;5114185;28;20931;-71
2022/06/20 09:03:09;;;;;;;0.40;0.40;;;36.90;39.70;;;;;;5109861;28;20412;-71
2022/06/20 09:05:57;;;;;;;0.63;0.63;;;37.40;41.20;;;;;;5072812;28;20452;-71
2022/06/20 09:08:35;;;;;;;0.40;0.40;;;38.40;38.90;;;;;;5072746;28;20401;-71
2022/06/20 09:11:25;;;;;;;0.67;0.67;;;39.00;39.50;;;;;;5107921;28;20413;-71
2022/06/20 09:14:18;;;;;;;0.77;0.70;;;38.50;40.10;;;;;;5115200;28;20390;-71
2022/06/20 09:16:46;;;;;;;0.60;0.40;;;38.70;39.10;;;;;;5115323;28;20404;-70
2022/06/20 09:19:21;;;;;;;1.07;1.07;;;38.50;40.50;;;;;;5114303;28;20512;-71
2022/06/20 09:22:07;;;;;;;0.40;0.40;;;38.30;38.80;;;;;;5115136;28;20398;-71
2022/06/20 09:24:50;;;;;;;2.27;1.60;;;38.00;38.70;;;;;;5115202;28;20432;-70
2022/06/20 09:27:23;;;;;;;0.30;0.30;;;38.30;39.30;;;;;;5115233;28;20427;-71
2022/06/20 09:29:55;;;;;;;0.30;0.30;;;38.40;40.40;;;;;;5115176;28;20402;-70
2022/06/20 09:32:44;;;;;;;2.10;1.27;;;38.30;41.20;;;;;;5114936;28;20413;-71
2022/06/20 09:35:44;;;;;;;0.50;0.40;;;37.50;37.90;;;;;;5114722;28;20426;-70
2022/06/20 09:38:20;;;;;;;0.40;0.40;;;37.00;39.10;;;;;;5114930;28;20406;-70
2022/06/20 09:40:45;;;;;;;0.40;0.40;;;35.30;40.20;;;;;;5114952;28;20459;-70
2022/06/20 09:43:39;;;;;;;0.40;0.30;;;35.90;42.10;;;;;;5114575;28;20753;-69
2022/06/20 09:46:30;;;;;;;0.40;0.40;;;36.00;38.70;;;;;;5114729;28;20681;-69
2022/06/20 09:49:05;;;;;;;0.30;0.30;;;36.30;39.60;;;;;;5114669;28;20508;-70
2022/06/20 09:51:40;;;;;;;1.07;1.07;;;36.50;39.70;;;;;;5114726;28;20783;-70
2022/06/20 09:54:08;;;;;;;0.70;0.70;;;36.30;42.90;;;;;;5114266;28;20417;-70
2022/06/20 09:56:40;;;;;;;0.60;0.60;;;36.60;40.30;;;;;;5114482;28;20394;-70
2022/06/20 09:59:19;;;;;;;0.50;0.50;;;36.70;37.30;;;;;;5114627;28;20528;-71
2022/06/20 10:01:52;;;;;;;0.30;0.30;;;37.10;38.30;;;;;;5114610;28;20390;-70
2022/06/20 10:04:24;;;;;;;0.40;0.30;;;36.70;38.70;;;;;;5114253;28;20430;-70
2022/06/20 10:06:54;;;;;;;1.00;0.60;;;36.00;38.90;;;;;;5114262;28;20409;-70
2022/06/20 10:09:37;;;;;;;0.50;0.40;;;35.90;39.50;;;;;;5114337;28;20489;-70
2022/06/20 10:12:15;;;;;;;0.70;0.70;;;35.30;39.50;;;;;;5114318;28;20393;-71
2022/06/20 10:14:49;;;;;;;1.13;1.13;;;35.10;41.60;;;;;;5114349;28;20414;-70
2022/06/20 10:17:34;;;;;;;0.80;0.80;;;35.50;40.70;;;;;;5114131;28;20491;-71
2022/06/20 10:20:19;;;;;;;0.53;0.53;;;35.50;38.80;;;;;;5114135;28;20504;-71
2022/06/20 10:23:04;;;;;;;0.80;0.60;;;35.50;40.30;;;;;;5113949;28;20424;-70
2022/06/20 10:25:32;;;;;;;0.60;0.60;;;35.50;39.10;;;;;;5114222;28;20426;-69
2022/06/20 10:28:24;;;;;;;0.87;0.83;;;34.60;39.90;;;;;;5114044;28;20453;-70
2022/06/20 10:31:06;;;;;;;1.10;1.10;;;33.90;44.20;;;;;;5114312;28;20404;-70
2022/06/20 10:33:45;;;;;;;0.77;0.77;;;34.10;39.80;;;;;;5113690;28;20779;-70
2022/06/20 10:36:17;;;;;;;0.80;0.60;;;34.10;43.00;;;;;;5114149;28;20378;-71
2022/06/20 10:39:18;;;;;;;0.30;0.30;;;34.70;39.80;;;;;;5113901;28;20446;-70
2022/06/20 10:41:55;;;;;;;7.57;3.20;;;34.70;42.00;;;;;;5054452;28;20469;-70
2022/06/20 10:44:25;;;;;;;0.47;0.47;;;34.10;40.10;;;;;;5108285;28;20425;-70
2022/06/20 10:47:09;;;;;;;0.40;0.40;;;34.00;45.40;;;;;;5113952;28;20398;-70
2022/06/20 10:49:51;;;;;;;0.30;0.30;;;33.90;42.10;;;;;;5114029;28;20473;-70
2022/06/20 10:52:39;;;;;;;0.40;0.40;;;33.90;44.70;;;;;;5113819;28;20461;-71
2022/06/20 10:55:16;;;;;;;0.50;0.50;;;33.80;44.50;;;;;;5113885;28;20902;-71
2022/06/20 10:58:07;;;;;;;0.40;0.40;;;33.60;42.50;;;;;;5114016;28;20394;-70
2022/06/20 11:00:39;;;;;;;0.50;0.50;;;33.00;42.90;;;;;;5113772;28;20453;-70
2022/06/20 11:03:38;;;;;;;0.47;0.47;;;32.30;45.30;;;;;;5113755;28;20481;-70
2022/06/20 11:06:28;;;;;;;0.50;0.50;;;31.40;42.80;;;;;;5113646;28;20428;-70
2022/06/20 11:09:08;;;;;;;0.50;0.50;;;31.20;45.90;;;;;;5113826;28;20404;-70
2022/06/20 11:11:51;;;;;;;0.37;0.37;;;31.10;48.40;;;;;;5113700;28;20408;-71
2022/06/20 11:14:26;;;;;;;0.47;0.47;;;30.80;46.30;;;;;;5113305;28;20430;-70
2022/06/20 11:17:17;;;;;;;0.43;0.43;;;30.60;46.40;;;;;;5113664;28;20411;-69
2022/06/20 11:20:00;;;;;;;0.50;0.40;;;30.50;47.90;;;;;;5113448;28;20809;-71
2022/06/20 11:22:37;;;;;;;1.83;1.73;;;30.50;45.60;;;;;;5113587;28;20425;-70
2022/06/20 11:25:03;;;;;;;0.30;0.30;;;30.80;52.70;;;;;;5113620;28;20479;-70
2022/06/20 11:27:49;;;;;;;0.40;0.40;;;30.50;47.30;;;;;;5113496;28;20409;-70
2022/06/20 11:30:14;;;;;;;2.33;1.90;;;30.50;52.60;;;;;;5113719;28;20164;-71
2022/06/20 11:33:08;;;;;;;1.50;0.60;;;30.40;48.20;;;;;;5113270;28;20416;-70
2022/06/20 11:35:45;;;;;;;0.47;0.47;;;30.50;47.40;;;;;;5113286;28;20261;-69
2022/06/20 11:38:32;;;;;;;1.10;1.00;;;30.60;49.90;;;;;;5113483;28;20405;-70
2022/06/20 11:41:07;;;;;;;0.67;0.67;;;30.60;48.80;;;;;;5114233;28;20410;-70
2022/06/20 11:44:06;;;;;;;0.70;0.70;;;30.60;46.00;;;;;;5117143;28;20399;-70
2022/06/20 11:46:51;;;;;;;0.40;0.40;;;30.50;50.60;;;;;;5116966;28;20804;-71
2022/06/20 11:49:20;;;;;;;0.67;0.67;;;30.50;48.10;;;;;;5116831;28;20470;-69
2022/06/20 11:51:53;;;;;;;0.60;0.60;;;30.40;44.70;;;;;;5117076;28;20399;-69
2022/06/20 11:54:43;;;;;;;0.70;0.63;;;30.20;44.10;;;;;;5116745;28;20914;-70
2022/06/20 11:57:37;;;;;;;0.30;0.30;;;30.00;46.20;;;;;;5116938;28;20501;-70
2022/06/20 12:00:18;;;;;;;0.30;0.30;;;30.00;43.70;;;;;;5117003;28;20528;-69
2022/06/20 12:03:40;;;;;;;0.77;0.50;;;29.70;44.30;;;;;;5116554;28;20405;-70
2022/06/20 12:06:15;;;;;;;0.73;0.73;;;29.70;46.90;;;;;;5073888;28;20444;-70
2022/06/20 12:08:55;;;;;;;1.17;1.17;;;29.50;46.20;;;;;;5073985;28;20411;-70
2022/06/20 12:11:30;;;;;;;0.40;0.40;;;29.20;45.00;;;;;;5100584;27;20940;-69
2022/06/20 12:14:23;;;;;;;0.50;0.50;;;29.30;45.70;;;;;;5116241;28;20401;-69
2022/06/20 12:17:10;;;;;;;0.60;0.60;;;29.60;47.10;;;;;;5116342;28;20390;-70
2022/06/20 12:23:25;;;;;;;0.40;0.40;;;29.30;45.50;;;;;;5115976;28;20527;-70
2022/06/20 12:25:48;;;;;;;0.40;0.40;;;29.40;48.70;;;;;;5112041;28;20474;-71
2022/06/20 12:28:39;;;;;;;0.60;0.60;;;29.50;48.30;;;;;;5116385;28;20382;-69
2022/06/20 12:31:08;;;;;;;0.40;0.40;;;29.60;49.60;;;;;;5115719;28;20438;-70
2022/06/20 12:33:53;;;;;;;0.40;0.40;;;29.50;49.80;;;;;;5116113;28;20402;-70
2022/06/20 12:36:32;;;;;;;1.33;1.23;;;29.60;48.10;;;;;;5116049;28;20428;-70
2022/06/20 12:39:15;;;;;;;0.80;0.80;;;29.50;44.60;;;;;;5116104;28;20493;-70
2022/06/20 12:41:44;;;;;;;0.40;0.40;;;29.60;50.60;;;;;;5116184;28;20750;-70
2022/06/20 12:44:26;;;;;;;0.87;0.87;;;29.60;46.40;;;;;;5115727;28;20508;-70
2022/06/20 12:47:10;;;;;;;0.70;0.70;;;29.60;46.00;;;;;;5115730;28;20397;-70
2022/06/20 12:49:54;;;;;;;0.40;0.40;;;29.60;47.00;;;;;;5115771;28;20777;-70
2022/06/20 12:52:30;;;;;;;0.90;0.90;;;29.00;45.10;;;;;;5115706;28;20816;-70
2022/06/20 12:55:19;;;;;;;0.30;0.30;;;28.90;46.10;;;;;;5115711;28;20793;-69
2022/06/20 12:58:00;;;;;;;0.40;0.40;;;29.10;50.20;;;;;;5109867;28;20509;-70
2022/06/20 13:00:42;;;;;;;0.30;0.30;;;29.10;47.10;;;;;;5114276;28;20460;-70
2022/06/20 13:03:07;;;;;;;0.40;0.40;;;29.10;47.70;;;;;;5115418;28;20394;-70
2022/06/20 13:06:11;;;;;;;0.57;0.57;;;28.90;50.80;;;;;;5115550;27;20502;-70
2022/06/20 13:08:59;;;;;;;0.83;0.83;;;28.90;49.10;;;;;;5115633;28;20168;-69
2022/06/20 13:11:46;;;;;;;0.30;0.30;;;29.00;52.50;;;;;;5115523;28;20394;-70
2022/06/20 13:14:21;;;;;;;0.40;0.40;;;29.10;49.50;;;;;;5115037;28;20453;-70
2022/06/20 13:17:12;;;;;;;0.50;0.50;;;29.10;46.50;;;;;;5115476;28;20397;-70
2022/06/20 13:19:46;;;;;;;0.67;0.60;;;29.20;47.50;;;;;;5115288;28;20450;-70
2022/06/20 13:22:52;;;;;;;0.50;0.50;;;29.10;46.80;;;;;;5114933;28;20500;-70
2022/06/20 13:25:38;;;;;;;1.43;1.33;;;28.90;47.40;;;;;;5091653;28;20434;-71
2022/06/20 13:28:31;;;;;;;0.50;0.40;;;29.00;47.20;;;;;;5115276;28;20510;-70
2022/06/20 13:31:20;;;;;;;0.30;0.30;;;29.10;50.50;;;;;;5114945;28;20406;-70
2022/06/20 13:34:15;;;;;;;0.30;0.30;;;29.10;49.70;;;;;;5114819;28;20398;-70
2022/06/20 13:36:41;;;;;;;2.53;2.43;;;29.00;48.10;;;;;;5114859;27;20414;-70
2022/06/20 13:39:34;;;;;;;0.70;0.70;;;29.00;46.40;;;;;;5114837;28;20484;-70
2022/06/20 13:42:18;;;;;;;0.80;0.80;;;29.00;46.90;;;;;;5110249;28;20173;-70
2022/06/20 13:44:59;;;;;;;0.50;0.50;;;28.90;47.10;;;;;;5114837;28;20425;-70
2022/06/20 13:47:51;;;;;;;0.90;0.50;;;28.90;49.50;;;;;;5114671;28;20390;-70
2022/06/20 13:50:50;;;;;;;0.63;0.63;;;28.70;49.70;;;;;;5114843;28;20746;-70
2022/06/20 13:53:37;;;;;;;0.30;0.30;;;28.70;52.00;;;;;;5114475;28;20398;-71